• Join FlightAware (Why Join?)
  • Login
  • US Flag 
05:09PM EDT


 

Airport Tracker/Info


-or-


 

Live Flight TrackerFlight Track Log ✈ GJS6221 ✈ 25-Apr-2013 ✈ KLGA - KBTV

Flight Track Log - Related Links

Times and Time Zones

All times are in EDT time to prevent confusion due to time zone crossing. See the GJS6221 flight status page for this flight to view local times or setup timezone preferences in your user account.

Time Position Orientation Groundspeed Altitude Reporting Facility
EDT Latitude Longitude Course Direction KTS MPH feet Rate Location/Type
01:13PM 40.8000 -73.8667 37° Northeast 144 166 1,100  Level New York TRACON
01:14PM 40.8333 -73.8333 37° Northeast 205 236 3,400 2,460 Climbing New York TRACON
01:15PM 40.9000 -73.7500 43° Northeast 266 306 6,300 2,700 Climbing New York TRACON
01:16PM 40.9500 -73.6833 45° Northeast 291 335 8,900 2,100 Climbing New York TRACON
01:17PM 41.0000 -73.5833 56° Northeast 351 404 10,600 1,860 Climbing New York TRACON
01:19PM 41.2078 -73.4775 21° North 383 441 15,100 1,860 Climbing Boston Center
01:20PM 41.3019 -73.4211 24° Northeast 394 453 16,600 1,740 Climbing Boston Center
01:21PM 41.4236 -73.3481 24° Northeast 424 488 18,600 1,800 Climbing Boston Center
01:22PM 41.5222 -73.2581 34° Northeast 437 503 20,300 1,800 Climbing Boston Center
01:23PM 41.6308 -73.2011 21° North 437 503 22,200 1,800 Climbing Boston Center
01:24PM 41.7539 -73.2136 356° North 422 486 23,900 1,620 Climbing Boston Center
01:25PM 41.8786 -73.2264 356° North 428 493 25,500 1,500 Climbing Boston Center
01:26PM 42.0058 -73.2392 356° North 442 509 26,900 720 Climbing Boston Center
01:27PM 42.1494 -73.2550 355° North 455 524 27,000  Climbing Boston Center
01:28PM 42.2889 -73.2708 355° North 472 543 27,000  Level Boston Center
01:29PM 42.4119 -73.2781 358° North 487 560 27,000  Level Boston Center
01:30PM 42.5472 -73.2911 356° North 487 560 27,000  Level Boston Center
01:31PM 42.6950 -73.3158 353° North 487 560 27,000  Level Boston Center
01:32PM 42.8347 -73.3292 356° North 492 566 27,000  Level Boston Center
01:33PM 42.9678 -73.3422 356° North 492 566 27,000  Level Boston Center
01:34PM 43.1056 -73.3331 North 492 566 27,000 -600 Level Boston Center
01:35PM 43.2453 -73.3122 North 498 573 25,900 -2,040 Descending Boston Center
01:36PM 43.3831 -73.2972 North 498 573 23,000 -2,880 Descending Boston Center
01:37PM 43.4956 -73.2817 North 480 552 20,200 -2,820 Descending Boston Center
01:38PM 43.6186 -73.2661 North 459 528 17,400 -2,880 Descending Boston Center
01:39PM 43.7417 -73.2506 North 414 476 14,500 -2,520 Descending Boston Center
01:40PM 43.8461 -73.2375 North 388 447 12,400 -1,620 Descending Boston Center
01:42PM 43.9439 -73.2244 North 360 414 11,000 -1,140 Descending Boston Center
01:43PM 44.0442 -73.1997 10° North 322 371 10,000 -1,440 Descending Boston Center
01:44PM 44.1153 -73.1456 29° Northeast 290 334 8,200 -1,620 Descending Boston Center
01:45PM 44.1761 -73.1031 27° Northeast 272 313 6,800 -1,260 Descending Boston Center
01:46PM 44.2389 -73.0717 20° North 245 282 5,700 -1,380 Descending Boston Center
01:47PM 44.2972 -73.0492 15° North 220 253 4,100 -1,080 Descending Boston Center
01:48PM 44.3514 -73.0497 360° North 203 234 3,600 -1,020 Descending Boston Center
01:49PM 44.4033 -73.0678 346° North 190 219 2,100 -1,140 Descending Boston Center
01:50PM 44.4367 -73.0972 328° Northwest 160 184 1,400 -840 Descending Boston Center
01:51PM 44.4614 -73.1353 312° West 129 148 500 -600 Descending Boston Center
01:52PM 44.4758 -73.1586 311° West 117 135 300 -120 Descending Boston Center
01:53PM 44.4717 -73.1586 180° South 55 63 300  Level Boston Center
01:54PM 44.4675 -73.1528 135° Southeast 10 12 300  Level Boston Center
01:55PM 44.4653 -73.1586 242° Southwest 10 12 300  Level Boston Center